Terminal Aerodrome Forecast
Issued by NWS Greer, SC

Home | Current Version | Previous Version | Text Only | Print | Product List | Glossary On
Versions: 1 2 3 4 5 6 7 8 9 10 11 12 13 14 15 16 17 18 19 20 21 22 23 24 25 26 27 28
000
FTUS42 KGSP 042058 AAA
TAFCLT
TAF AMD
KCLT 042058Z 0421/0518 26006KT P6SM SCT060 BKN080
     FM042300 24004KT P6SM SCT060 BKN080
     FM050300 23003KT P6SM BKN060
     FM050600 33003KT P6SM BKN050
     FM051200 32009KT P6SM SCT060=

USA.gov is the U.S. government's official web portal to all federal, state and local government web resources and services.